createdAt,value
2019-05-11T00:00:27.602Z,101172.39
2019-05-11T00:02:58.443Z,101177.45
2019-05-11T00:05:27.043Z,101173.88
2019-05-11T00:07:57.250Z,101175.52
2019-05-11T00:10:25.747Z,101179.36
2019-05-11T00:12:54.315Z,101175.39
2019-05-11T00:15:22.843Z,101178.78
2019-05-11T00:17:51.326Z,101176.52
2019-05-11T00:20:20.576Z,101176.88
2019-05-11T00:22:49.061Z,101175.48
2019-05-11T00:25:17.604Z,101170.20
2019-05-11T00:27:46.124Z,101174.45
2019-05-11T00:30:14.694Z,101176.55
2019-05-11T00:32:43.187Z,101174.30
2019-05-11T00:35:11.758Z,101172.06
2019-05-11T00:37:40.278Z,101168.91
2019-05-11T00:40:14.533Z,101171.91
2019-05-11T00:42:39.241Z,101173.97
2019-05-11T00:45:07.874Z,101177.31
2019-05-11T00:47:36.434Z,101174.28
2019-05-11T00:50:07.417Z,101169.89
2019-05-11T00:52:35.951Z,101169.77
2019-05-11T00:55:06.088Z,101171.47
2019-05-11T00:57:34.634Z,101173.53
2019-05-11T01:00:03.231Z,101174.78
2019-05-11T01:02:31.921Z,101175.17
2019-05-11T01:05:01.658Z,101175.94
2019-05-11T01:07:30.197Z,101173.33
2019-05-11T01:09:58.953Z,101166.01
2019-05-11T01:12:28.101Z,101159.07
2019-05-11T01:14:56.735Z,101166.26
2019-05-11T01:17:25.273Z,101166.54
2019-05-11T01:19:53.855Z,101169.44
2019-05-11T01:22:22.365Z,101168.42
2019-05-11T01:24:50.899Z,101166.20
2019-05-11T01:27:19.439Z,101162.58
2019-05-11T01:29:47.928Z,101160.73
2019-05-11T01:32:16.495Z,101163.55
2019-05-11T01:34:45.090Z,101167.31
2019-05-11T01:37:13.592Z,101163.72
2019-05-11T01:39:42.172Z,101163.62
2019-05-11T01:42:10.729Z,101160.45
2019-05-11T01:44:39.502Z,101159.98
2019-05-11T01:47:08.442Z,101151.25
2019-05-11T01:49:37.030Z,101151.97
2019-05-11T01:52:05.517Z,101147.52
2019-05-11T01:54:34.017Z,101147.41
2019-05-11T01:57:02.653Z,101144.65
2019-05-11T01:59:31.192Z,101144.54
2019-05-11T02:01:59.688Z,101142.20
2019-05-11T02:04:28.262Z,101147.28
2019-05-11T02:06:57.007Z,101148.87
2019-05-11T02:09:25.516Z,101154.30
2019-05-11T02:11:54.038Z,101147.30
2019-05-11T02:14:22.530Z,101142.00
2019-05-11T02:16:51.036Z,101145.41
2019-05-11T02:19:19.612Z,101150.03
2019-05-11T02:21:48.111Z,101151.25
2019-05-11T02:24:16.966Z,101154.54
2019-05-11T02:26:45.524Z,101153.67
2019-05-11T02:29:14.028Z,101150.56
2019-05-11T02:31:42.530Z,101157.80
2019-05-11T02:34:11.064Z,101154.28
2019-05-11T02:36:39.572Z,101151.59
2019-05-11T02:39:08.156Z,101153.22
2019-05-11T02:41:37.646Z,101161.25
2019-05-11T02:44:06.585Z,101161.25
2019-05-11T02:46:35.650Z,101157.58
2019-05-11T02:49:04.182Z,101159.55
2019-05-11T02:51:33.206Z,101159.55
2019-05-11T02:54:03.103Z,101154.70
2019-05-11T02:56:31.628Z,101159.73
2019-05-11T02:59:00.129Z,101159.12
2019-05-11T03:01:28.655Z,101168.27
2019-05-11T03:03:57.194Z,101168.27
2019-05-11T03:06:25.684Z,101174.70
2019-05-11T03:08:54.349Z,101174.70
2019-05-11T03:11:22.932Z,101173.84
2019-05-11T03:13:51.431Z,101175.58
2019-05-11T03:16:21.571Z,101181.97
2019-05-11T03:18:50.082Z,101187.13
2019-05-11T03:21:18.650Z,101192.31
2019-05-11T03:23:47.163Z,101187.23
2019-05-11T03:26:15.737Z,101193.34
2019-05-11T03:28:44.232Z,101193.34
2019-05-11T03:31:12.737Z,101192.13
2019-05-11T03:33:41.340Z,101188.38
2019-05-11T03:36:09.823Z,101176.09
2019-05-11T03:38:38.318Z,101174.05
2019-05-11T03:41:06.862Z,101172.42
2019-05-11T03:43:35.657Z,101175.52
2019-05-11T03:46:04.581Z,101179.54
2019-05-11T03:48:33.355Z,101188.28
2019-05-11T03:51:01.872Z,101188.93
2019-05-11T03:53:30.586Z,101193.41
2019-05-11T03:55:59.815Z,101194.88
2019-05-11T03:58:28.718Z,101199.39
2019-05-11T04:00:57.170Z,101194.42
2019-05-11T04:03:25.709Z,101195.06
2019-05-11T04:05:54.238Z,101199.16
2019-05-11T04:08:22.768Z,101194.27
2019-05-11T04:10:52.369Z,101188.45
2019-05-11T04:13:20.878Z,101195.61
2019-05-11T04:15:49.370Z,101197.61
2019-05-11T04:18:17.955Z,101190.16
2019-05-11T04:20:46.459Z,101196.55
2019-05-11T04:23:14.958Z,101196.41
2019-05-11T04:25:44.387Z,101201.84
2019-05-11T04:28:12.869Z,101211.64
2019-05-11T04:30:42.911Z,101214.89
2019-05-11T04:33:11.455Z,101220.39
2019-05-11T04:35:39.956Z,101226.41
2019-05-11T04:38:08.480Z,101227.48
2019-05-11T04:40:37.023Z,101223.02
2019-05-11T04:43:05.516Z,101228.45
2019-05-11T04:45:35.037Z,101223.80
2019-05-11T04:48:03.688Z,101223.51
2019-05-11T04:50:33.569Z,101230.58
2019-05-11T04:53:03.057Z,101232.97
2019-05-11T04:55:31.733Z,101235.33
2019-05-11T04:58:00.656Z,101229.97
2019-05-11T05:00:29.125Z,101232.88
2019-05-11T05:02:57.683Z,101234.87
2019-05-11T05:05:26.185Z,101235.18
2019-05-11T05:08:08.666Z,101238.82
2019-05-11T05:10:25.057Z,101237.80
2019-05-11T05:13:09.342Z,101243.94
2019-05-11T05:15:24.282Z,101239.85
2019-05-11T05:17:52.835Z,101240.00
2019-05-11T05:20:21.317Z,101242.80
2019-05-11T05:22:49.789Z,101244.27
2019-05-11T05:25:18.304Z,101248.36
2019-05-11T05:27:46.788Z,101236.08
2019-05-11T05:30:15.294Z,101233.25
2019-05-11T05:32:43.821Z,101229.14
2019-05-11T05:35:12.332Z,101225.91
2019-05-11T05:37:40.820Z,101234.20
2019-05-11T05:40:10.936Z,101235.21
2019-05-11T05:42:39.414Z,101231.53
2019-05-11T05:45:07.999Z,101239.45
2019-05-11T05:47:36.485Z,101240.16
2019-05-11T05:50:06.806Z,101234.70
2019-05-11T05:52:35.270Z,101241.43
2019-05-11T05:55:04.825Z,101237.70
2019-05-11T05:57:33.324Z,101230.06
2019-05-11T06:00:01.804Z,101231.48
2019-05-11T06:02:30.315Z,101234.66
2019-05-11T06:04:58.802Z,101245.59
2019-05-11T06:07:27.296Z,101243.98
2019-05-11T06:09:55.837Z,101245.42
2019-05-11T06:12:24.303Z,101248.63
2019-05-11T06:14:53.121Z,101250.50
2019-05-11T06:17:21.654Z,101240.31
2019-05-11T06:19:50.138Z,101248.67
2019-05-11T06:22:18.611Z,101246.70
2019-05-11T06:24:47.143Z,101246.94
2019-05-11T06:27:15.623Z,101246.70
2019-05-11T06:29:44.125Z,101249.61
2019-05-11T06:32:12.636Z,101252.38
2019-05-11T06:34:41.101Z,101249.06
2019-05-11T06:37:09.830Z,101245.29
2019-05-11T06:39:38.366Z,101252.00
2019-05-11T06:42:06.870Z,101258.16
2019-05-11T06:44:35.352Z,101255.68
2019-05-11T06:47:04.051Z,101249.75
2019-05-11T06:49:32.521Z,101257.70
2019-05-11T06:52:01.011Z,101266.52
2019-05-11T06:54:29.535Z,101261.54
2019-05-11T06:56:58.286Z,101265.70
2019-05-11T06:59:26.779Z,101268.89
2019-05-11T07:01:55.286Z,101267.03
2019-05-11T07:04:23.774Z,101273.81
2019-05-11T07:06:52.271Z,101268.87
2019-05-11T07:09:20.821Z,101270.01
2019-05-11T07:11:49.402Z,101270.78
2019-05-11T07:14:21.006Z,101272.74
2019-05-11T07:16:48.694Z,101262.86
2019-05-11T07:19:17.179Z,101263.45
2019-05-11T07:21:48.886Z,101266.54
2019-05-11T07:24:17.462Z,101262.80
2019-05-11T07:26:46.103Z,101261.66
2019-05-11T07:29:14.616Z,101261.26
2019-05-11T07:31:43.159Z,101259.56
2019-05-11T07:34:11.716Z,101267.95
2019-05-11T07:36:40.208Z,101265.97
2019-05-11T07:39:08.725Z,101257.43
2019-05-11T07:41:38.722Z,101259.73
2019-05-11T07:44:09.816Z,101254.70
2019-05-11T07:46:37.851Z,101257.92
2019-05-11T07:49:08.556Z,101250.70
2019-05-11T07:51:38.741Z,101252.98
2019-05-11T07:54:08.466Z,101253.53
2019-05-11T07:56:39.024Z,101253.23
2019-05-11T07:59:08.047Z,101255.51
2019-05-11T08:01:38.644Z,101252.55
2019-05-11T08:04:07.784Z,101256.98
2019-05-11T08:06:38.921Z,101257.05
2019-05-11T08:09:08.310Z,101258.42
2019-05-11T08:11:38.857Z,101263.69
2019-05-11T08:14:07.875Z,101256.77
2019-05-11T08:16:38.716Z,101257.70
2019-05-11T08:19:10.321Z,101260.83
2019-05-11T08:21:38.901Z,101259.62
2019-05-11T08:24:09.109Z,101251.92
2019-05-11T08:26:38.659Z,101253.73
2019-05-11T08:29:08.067Z,101247.66
2019-05-11T08:31:38.436Z,101248.98
2019-05-11T08:34:08.901Z,101250.74
2019-05-11T08:36:37.893Z,101248.14
2019-05-11T08:39:08.089Z,101249.44
2019-05-11T08:41:38.468Z,101241.21
2019-05-11T08:44:08.924Z,101238.62
2019-05-11T08:46:38.639Z,101246.47
2019-05-11T08:49:08.626Z,101237.77
2019-05-11T08:51:38.571Z,101248.66
2019-05-11T08:54:09.011Z,101245.56
2019-05-11T08:56:38.407Z,101248.59
2019-05-11T08:59:08.052Z,101246.41
2019-05-11T09:01:39.407Z,101243.80
2019-05-11T09:04:08.884Z,101239.02
2019-05-11T09:06:37.826Z,101234.68
2019-05-11T09:09:08.865Z,101245.16
2019-05-11T09:11:38.960Z,101243.86
2019-05-11T09:14:08.379Z,101246.05
2019-05-11T09:16:38.372Z,101243.44
2019-05-11T09:19:08.760Z,101241.25
2019-05-11T09:21:38.293Z,101241.25
2019-05-11T09:24:08.491Z,101244.33
2019-05-11T09:26:38.940Z,101246.55
2019-05-11T09:29:08.676Z,101240.46
2019-05-11T09:31:39.121Z,101253.08
2019-05-11T09:34:08.952Z,101253.97
2019-05-11T09:36:38.857Z,101250.93
2019-05-11T09:39:08.669Z,101250.51
2019-05-11T09:41:38.350Z,101249.20
2019-05-11T09:44:09.007Z,101240.91
2019-05-11T09:46:38.445Z,101250.91
2019-05-11T09:49:08.038Z,101247.44
2019-05-11T09:51:37.966Z,101256.58
2019-05-11T09:54:07.874Z,101259.23
2019-05-11T09:56:38.210Z,101256.66
2019-05-11T09:59:08.759Z,101256.67
2019-05-11T10:01:37.892Z,101257.58
2019-05-11T10:04:09.060Z,101256.73
2019-05-11T10:06:39.073Z,101252.41
2019-05-11T10:09:10.822Z,101251.11
2019-05-11T10:11:40.015Z,101249.39
2019-05-11T10:14:10.172Z,101251.57
2019-05-11T10:16:38.858Z,101253.75
2019-05-11T10:19:08.521Z,101257.25
2019-05-11T10:21:38.485Z,101249.82
2019-05-11T10:24:08.463Z,101249.83
2019-05-11T10:26:38.682Z,101243.30
2019-05-11T10:29:08.999Z,101252.03
2019-05-11T10:31:38.710Z,101252.47
2019-05-11T10:34:10.753Z,101249.84
2019-05-11T10:36:41.074Z,101252.44
2019-05-11T10:39:12.818Z,101254.63
2019-05-11T10:41:41.305Z,101254.66
2019-05-11T10:44:18.906Z,101248.09
2019-05-11T10:46:48.371Z,101252.47
2019-05-11T10:49:18.826Z,101255.08
2019-05-11T10:52:09.660Z,101252.88
2019-05-11T10:54:42.470Z,101252.02
2019-05-11T10:57:12.609Z,101254.22
2019-05-11T10:59:42.878Z,101250.27
2019-05-11T11:02:13.911Z,101249.83
2019-05-11T11:04:42.711Z,101251.13
2019-05-11T11:07:11.207Z,101249.83
2019-05-11T11:09:41.463Z,101249.40
2019-05-11T11:12:13.583Z,101247.22
2019-05-11T11:14:48.163Z,101248.95
2019-05-11T11:17:19.836Z,101250.71
2019-05-11T11:19:53.010Z,101250.69
2019-05-11T11:22:35.843Z,101253.30
2019-05-11T11:24:54.064Z,101252.86
2019-05-11T11:27:23.207Z,101262.05
2019-05-11T11:29:54.400Z,101263.80
2019-05-11T11:32:22.926Z,101253.76
2019-05-11T11:34:54.798Z,101255.06
2019-05-11T11:37:28.088Z,101256.38
2019-05-11T11:39:58.126Z,101251.16
2019-05-11T11:42:28.575Z,101249.84
2019-05-11T11:45:02.118Z,101248.95
2019-05-11T11:47:30.991Z,101248.96
2019-05-11T11:50:00.617Z,101259.00
2019-05-11T11:52:30.645Z,101256.81
2019-05-11T11:55:02.385Z,101265.56
2019-05-11T11:57:32.371Z,101259.43
2019-05-11T12:00:04.236Z,101267.29
2019-05-11T12:02:34.290Z,101263.36
2019-05-11T12:05:02.791Z,101262.94
2019-05-11T12:07:31.284Z,101257.67
2019-05-11T12:10:07.902Z,101254.17
2019-05-11T12:12:38.859Z,101253.73
2019-05-11T12:15:09.047Z,101253.28
2019-05-11T12:17:38.231Z,101254.61
2019-05-11T12:20:09.284Z,101249.81
2019-05-11T12:22:38.750Z,101249.81
2019-05-11T12:25:08.075Z,101255.05
2019-05-11T12:27:38.288Z,101249.82
2019-05-11T12:30:11.106Z,101252.42
2019-05-11T12:32:48.525Z,101253.70
2019-05-11T12:35:17.859Z,101250.63
2019-05-11T12:37:48.630Z,101253.22
2019-05-11T12:40:19.062Z,101258.88
2019-05-11T12:42:48.888Z,101250.55
2019-05-11T12:45:18.675Z,101253.55
2019-05-11T12:47:49.181Z,101254.84
2019-05-11T12:50:19.396Z,101253.51
2019-05-11T12:52:47.934Z,101262.25
2019-05-11T12:55:18.174Z,101260.09
2019-05-11T12:57:48.341Z,101263.60
2019-05-11T13:00:19.338Z,101263.59
2019-05-11T13:02:49.118Z,101267.97
2019-05-11T13:05:19.180Z,101266.22
2019-05-11T13:07:48.513Z,101265.33
2019-05-11T13:10:17.819Z,101265.73
2019-05-11T13:12:50.409Z,101266.14
2019-05-11T13:15:18.981Z,101266.95
2019-05-11T13:17:49.214Z,101274.75
2019-05-11T13:20:18.201Z,101273.81
2019-05-11T13:22:48.891Z,101278.59
2019-05-11T13:25:17.720Z,101277.67
2019-05-11T13:27:48.951Z,101286.36
2019-05-11T13:30:18.396Z,101288.48
2019-05-11T13:32:49.361Z,101288.45
2019-05-11T13:35:18.796Z,101294.08
2019-05-11T13:37:48.089Z,101284.03
2019-05-11T13:40:18.446Z,101293.70
2019-05-11T13:42:49.309Z,101289.38
2019-05-11T13:45:17.998Z,101294.29
2019-05-11T13:47:54.478Z,101273.86
2019-05-11T13:50:20.016Z,101293.52
2019-05-11T13:52:48.501Z,101289.60
2019-05-11T13:55:18.172Z,101302.72
2019-05-11T13:57:48.643Z,101300.52
2019-05-11T14:00:17.816Z,101303.15
2019-05-11T14:02:48.528Z,101304.41
2019-05-11T14:05:19.877Z,101309.20
2019-05-11T14:07:49.986Z,101310.09
2019-05-11T14:10:18.541Z,101308.78
2019-05-11T14:12:50.052Z,101310.98
2019-05-11T14:15:19.042Z,101312.73
2019-05-11T14:17:48.581Z,101309.23
2019-05-11T14:20:21.036Z,101314.09
2019-05-11T14:22:49.535Z,101318.05
2019-05-11T14:25:18.827Z,101325.52
2019-05-11T14:27:48.014Z,101325.97
2019-05-11T14:30:18.803Z,101331.25
2019-05-11T14:32:47.785Z,101336.97
2019-05-11T14:35:18.803Z,101340.06
2019-05-11T14:37:48.651Z,101351.44
2019-05-11T14:40:17.908Z,101356.72
2019-05-11T14:42:49.311Z,101352.37
2019-05-11T14:45:18.697Z,101351.06
2019-05-11T14:47:47.869Z,101354.55
2019-05-11T14:50:18.589Z,101349.33
2019-05-11T14:52:48.831Z,101361.12
2019-05-11T14:55:18.437Z,101364.20
2019-05-11T14:57:48.593Z,101369.44
2019-05-11T15:00:18.648Z,101375.13
2019-05-11T15:02:49.641Z,101372.48
2019-05-11T15:05:20.420Z,101383.39
2019-05-11T15:07:52.030Z,101384.70
2019-05-11T15:10:19.459Z,101380.78
2019-05-11T15:12:48.877Z,101385.58
2019-05-11T15:15:18.634Z,101391.23
2019-05-11T15:17:49.220Z,101395.17
2019-05-11T15:20:17.976Z,101396.92
2019-05-11T15:22:48.679Z,101391.23
2019-05-11T15:25:19.343Z,101396.05
2019-05-11T15:27:48.719Z,101400.42
2019-05-11T15:30:18.323Z,101399.97
2019-05-11T15:32:48.118Z,101395.63
2019-05-11T15:35:18.503Z,101402.16
2019-05-11T15:37:48.343Z,101404.36
2019-05-11T15:40:21.640Z,101410.02
2019-05-11T15:42:50.125Z,101411.77
2019-05-11T15:45:19.253Z,101413.96
2019-05-11T15:47:48.697Z,101404.36
2019-05-11T15:50:19.017Z,101415.70
2019-05-11T15:52:48.729Z,101418.75
2019-05-11T15:55:19.022Z,101415.27
2019-05-11T15:57:48.440Z,101416.11
2019-05-11T16:00:17.590Z,101423.11
2019-05-11T16:02:48.682Z,101425.26
2019-05-11T16:05:18.267Z,101432.25
2019-05-11T16:07:48.978Z,101420.84
2019-05-11T16:10:19.462Z,101426.06
2019-05-11T16:12:48.797Z,101428.67
2019-05-11T16:15:19.416Z,101434.80
2019-05-11T16:17:48.737Z,101438.70
2019-05-11T16:20:18.045Z,101436.95
2019-05-11T16:22:47.964Z,101442.58
2019-05-11T16:25:19.248Z,101446.50
2019-05-11T16:27:47.149Z,101452.16
2019-05-11T16:30:18.378Z,101447.80
2019-05-11T16:32:48.038Z,101454.70
2019-05-11T16:35:18.004Z,101459.00
2019-05-11T16:37:48.612Z,101462.88
2019-05-11T16:40:20.162Z,101471.14
2019-05-11T16:42:47.885Z,101482.44
2019-05-11T16:45:18.958Z,101471.48
2019-05-11T16:47:48.315Z,101481.48
2019-05-11T16:50:18.059Z,101478.83
2019-05-11T16:52:48.142Z,101481.84
2019-05-11T16:55:18.419Z,101488.78
2019-05-11T16:57:48.554Z,101487.83
2019-05-11T17:00:17.752Z,101490.42
2019-05-11T17:02:48.699Z,101500.44
2019-05-11T17:05:25.814Z,101500.86
2019-05-11T17:07:48.304Z,101503.89
2019-05-11T17:10:18.167Z,101512.53
2019-05-11T17:12:48.267Z,101509.82
2019-05-11T17:15:18.499Z,101504.52
2019-05-11T17:17:48.620Z,101501.37
2019-05-11T17:20:19.389Z,101503.97
2019-05-11T17:22:48.563Z,101506.06
2019-05-11T17:25:19.322Z,101503.34
2019-05-11T17:27:48.574Z,101503.28
2019-05-11T17:30:19.205Z,101500.59
2019-05-11T17:32:49.165Z,101506.62
2019-05-11T17:35:18.243Z,101507.84
2019-05-11T17:37:48.507Z,101517.31
2019-05-11T17:40:22.295Z,101519.40
2019-05-11T17:42:53.531Z,101533.68
2019-05-11T17:45:20.749Z,101545.35
2019-05-11T17:47:51.702Z,101554.38
2019-05-11T17:50:20.498Z,101555.58
2019-05-11T17:52:50.291Z,101558.95
2019-05-11T17:55:19.451Z,101572.70
2019-05-11T17:57:49.684Z,101575.20
2019-05-11T18:00:23.434Z,101568.56
2019-05-11T18:02:52.072Z,101571.05
2019-05-11T18:05:20.814Z,101570.96
2019-05-11T18:07:49.794Z,101570.40
2019-05-11T18:10:19.267Z,101579.00
2019-05-11T18:12:48.652Z,101579.72
2019-05-11T18:15:18.643Z,101577.02
2019-05-11T18:17:48.397Z,101582.18
2019-05-11T18:20:22.298Z,101584.22
2019-05-11T18:22:51.162Z,101589.38
2019-05-11T18:25:22.466Z,101586.73
2019-05-11T18:27:54.256Z,101595.37
2019-05-11T18:30:22.851Z,101600.97
2019-05-11T18:32:51.559Z,101605.31
2019-05-11T18:35:20.035Z,101621.84
2019-05-11T18:37:48.539Z,101622.23
2019-05-11T18:40:18.694Z,101622.66
2019-05-11T18:42:48.830Z,101621.76
2019-05-11T18:45:19.384Z,101641.72
2019-05-11T18:47:49.102Z,101642.92
2019-05-11T18:50:29.352Z,101649.39
2019-05-11T18:52:48.983Z,101651.02
2019-05-11T18:55:19.003Z,101652.70
2019-05-11T18:57:49.039Z,101655.69
2019-05-11T19:00:18.939Z,101648.65
2019-05-11T19:02:49.325Z,101660.35
2019-05-11T19:05:18.172Z,101657.27
2019-05-11T19:07:48.136Z,101654.17
2019-05-11T19:10:16.943Z,101658.89
2019-05-11T19:12:45.424Z,101676.64
2019-05-11T19:15:14.187Z,101685.27
2019-05-11T19:17:42.704Z,101684.77
2019-05-11T19:20:11.252Z,101688.62
2019-05-11T19:22:39.775Z,101697.66
2019-05-11T19:25:08.993Z,101700.65
2019-05-11T19:27:37.859Z,101704.94
2019-05-11T19:30:09.432Z,101711.77
2019-05-11T19:32:38.493Z,101714.25
2019-05-11T19:35:08.972Z,101713.25
2019-05-11T19:37:38.884Z,101718.30
2019-05-11T19:40:09.226Z,101718.66
2019-05-11T19:42:59.065Z,101715.46
2019-05-11T19:45:29.320Z,101713.27
2019-05-11T19:47:57.916Z,101720.58
2019-05-11T19:50:26.443Z,101722.26
2019-05-11T19:52:54.915Z,101725.73
2019-05-11T19:55:23.473Z,101722.69
2019-05-11T19:57:52.272Z,101723.51
2019-05-11T20:00:22.868Z,101730.01
2019-05-11T20:02:51.425Z,101728.27
2019-05-11T20:05:19.981Z,101731.30
2019-05-11T20:07:49.005Z,101736.06
2019-05-11T20:10:18.913Z,101739.47
2019-05-11T20:12:48.514Z,101746.77
2019-05-11T20:15:18.885Z,101739.78
2019-05-11T20:17:48.601Z,101746.23
2019-05-11T20:20:18.610Z,101744.48
2019-05-11T20:22:48.284Z,101743.56
2019-05-11T20:25:18.592Z,101744.38
2019-05-11T20:27:48.375Z,101753.45
2019-05-11T20:30:18.600Z,101759.09
2019-05-11T20:32:48.500Z,101757.31
2019-05-11T20:35:17.621Z,101753.39
2019-05-11T20:37:46.106Z,101756.78
2019-05-11T20:40:14.660Z,101761.48
2019-05-11T20:42:43.158Z,101766.66
2019-05-11T20:45:11.731Z,101767.03
2019-05-11T20:47:40.203Z,101763.45
2019-05-11T20:50:08.913Z,101774.20
2019-05-11T20:52:38.970Z,101772.41
2019-05-11T20:55:08.788Z,101771.42
2019-05-11T20:57:39.191Z,101771.34
2019-05-11T21:00:09.813Z,101768.22
2019-05-11T21:02:38.441Z,101771.19
2019-05-11T21:05:09.081Z,101769.84
2019-05-11T21:07:38.880Z,101773.23
2019-05-11T21:10:08.578Z,101771.44
2019-05-11T21:12:38.576Z,101773.08
2019-05-11T21:15:08.620Z,101776.48
2019-05-11T21:17:37.084Z,101777.30
2019-05-11T21:20:07.641Z,101774.67
2019-05-11T21:22:40.003Z,101778.02
2019-05-11T21:25:09.053Z,101777.14
2019-05-11T21:27:38.599Z,101774.48
2019-05-11T21:30:11.805Z,101771.86
2019-05-11T21:32:41.049Z,101774.83
2019-05-11T21:35:09.972Z,101777.38
2019-05-11T21:37:39.162Z,101786.02
2019-05-11T21:40:09.105Z,101783.73
2019-05-11T21:42:38.990Z,101784.08
2019-05-11T21:45:09.458Z,101786.59
2019-05-11T21:47:38.894Z,101794.69
2019-05-11T21:50:08.999Z,101797.71
2019-05-11T21:52:38.513Z,101809.73
2019-05-11T21:55:09.459Z,101824.75
2019-05-11T21:57:38.366Z,101823.31
2019-05-11T22:00:08.960Z,101838.80
2019-05-11T22:02:38.420Z,101837.42
2019-05-11T22:05:08.299Z,101830.81
2019-05-11T22:07:38.830Z,101836.78
2019-05-11T22:10:10.076Z,101843.16
2019-05-11T22:12:39.363Z,101850.89
2019-05-11T22:15:09.539Z,101846.42
2019-05-11T22:17:39.298Z,101852.00
2019-05-11T22:20:08.799Z,101853.66
2019-05-11T22:22:38.962Z,101857.05
2019-05-11T22:25:11.562Z,101864.77
2019-05-11T22:27:40.096Z,101856.41
2019-05-11T22:30:09.120Z,101867.63
2019-05-11T22:32:38.652Z,101866.75
2019-05-11T22:35:08.583Z,101864.52
2019-05-11T22:37:38.508Z,101868.77
2019-05-11T22:40:08.673Z,101877.44
2019-05-11T22:42:37.716Z,101879.12
2019-05-11T22:45:09.654Z,101882.95
2019-05-11T22:47:39.420Z,101880.72
2019-05-11T22:50:09.090Z,101881.56
2019-05-11T22:52:40.498Z,101888.50
2019-05-11T22:55:11.657Z,101887.20
2019-05-11T22:57:38.956Z,101892.03
2019-05-11T23:00:09.268Z,101888.56
2019-05-11T23:02:38.190Z,101889.89
2019-05-11T23:05:09.000Z,101897.22
2019-05-11T23:07:41.216Z,101901.47
2019-05-11T23:10:09.915Z,101901.31
2019-05-11T23:12:38.842Z,101901.64
2019-05-11T23:15:15.061Z,101909.36
2019-05-11T23:17:43.664Z,101908.84
2019-05-11T23:20:12.590Z,101914.81
2019-05-11T23:22:57.571Z,101924.66
2019-05-11T23:25:19.932Z,101929.75
2019-05-11T23:27:48.972Z,101934.35
2019-05-11T23:30:19.701Z,101937.34
2019-05-11T23:32:49.943Z,101941.90
2019-05-11T23:35:18.963Z,101945.72
2019-05-11T23:37:49.414Z,101950.88
2019-05-11T23:40:18.406Z,101945.63
2019-05-11T23:42:48.937Z,101952.04
2019-05-11T23:45:18.836Z,101957.61
2019-05-11T23:47:48.862Z,101961.89
2019-05-11T23:50:19.146Z,101958.38
2019-05-11T23:52:53.231Z,101957.44
2019-05-11T23:55:19.366Z,101960.38
2019-05-11T23:57:49.707Z,101959.97
